Time;durP1;ratioP1;P1;durP2;ratioP2;P2;SDS_P1;SDS_P2;PMS_P1;PMS_P2;Temp;Humidity;BMP_temperature;BMP_pressure;BME280_temperature;BME280_humidity;BME280_pressure;Samples;Min_cycle;Max_cycle;Signal;HPM_P1;HPM_P2
2023/09/03 00:01:16;;;;;;;114.20;65.45;;;20.40;92.80;;;;;;4967900;28;90248;-74
2023/09/03 00:03:42;;;;;;;112.85;65.05;;;20.30;92.90;;;;;;4940141;28;89958;-74
2023/09/03 00:06:07;;;;;;;112.15;65.15;;;20.40;92.90;;;;;;4972050;28;90393;-74
2023/09/03 00:08:33;;;;;;;112.03;64.18;;;20.30;93.80;;;;;;4969175;28;89629;-73
2023/09/03 00:10:58;;;;;;;111.90;64.28;;;20.30;93.20;;;;;;4953407;28;91320;-74
2023/09/03 00:13:24;;;;;;;112.97;63.47;;;20.30;93.30;;;;;;4961743;28;90674;-74
2023/09/03 00:15:50;;;;;;;109.45;62.35;;;20.30;93.40;;;;;;4948811;28;89985;-74
2023/09/03 00:18:15;;;;;;;111.05;63.40;;;20.30;93.70;;;;;;4967454;28;90365;-74
2023/09/03 00:20:53;;;;;;;113.85;66.28;;;20.30;93.40;;;;;;4963631;28;94324;-74
2023/09/03 00:23:19;;;;;;;110.75;63.75;;;20.30;93.10;;;;;;4974690;28;93930;-74
2023/09/03 00:25:44;;;;;;;112.28;64.22;;;20.30;93.40;;;;;;4977682;28;89412;-74
2023/09/03 00:28:10;;;;;;;114.13;64.75;;;20.20;93.10;;;;;;4977003;28;91736;-74
2023/09/03 00:30:36;;;;;;;111.63;63.45;;;20.30;93.40;;;;;;4961962;28;89626;-74
2023/09/03 00:33:01;;;;;;;112.32;64.72;;;20.20;93.20;;;;;;4969161;28;90965;-74
2023/09/03 00:35:27;;;;;;;113.68;66.15;;;20.20;93.40;;;;;;4969016;28;92349;-73
2023/09/03 00:37:53;;;;;;;113.53;65.38;;;20.20;93.30;;;;;;4948953;28;90258;-74
2023/09/03 00:40:19;;;;;;;110.45;63.63;;;20.10;93.10;;;;;;4970344;28;90226;-74
2023/09/03 00:42:45;;;;;;;111.90;64.15;;;20.10;93.60;;;;;;4969469;28;89877;-74
2023/09/03 00:45:11;;;;;;;110.43;63.20;;;20.20;93.60;;;;;;4980315;28;88793;-74
2023/09/03 00:47:37;;;;;;;114.03;65.75;;;20.10;93.70;;;;;;4967200;28;94399;-74
2023/09/03 00:50:04;;;;;;;113.95;65.40;;;20.10;93.30;;;;;;4965091;28;90272;-75
2023/09/03 00:52:30;;;;;;;112.80;65.32;;;20.10;93.20;;;;;;4966903;28;89954;-74
2023/09/03 00:54:57;;;;;;;113.05;64.32;;;20.10;93.40;;;;;;4965721;28;89789;-74
2023/09/03 00:57:23;;;;;;;112.05;63.78;;;20.10;93.80;;;;;;4960324;28;91098;-74
2023/09/03 00:59:51;;;;;;;114.00;66.00;;;20.10;93.60;;;;;;4969690;28;89365;-73
2023/09/03 01:02:19;;;;;;;113.78;65.07;;;20.00;93.50;;;;;;4963062;28;89941;-74
2023/09/03 01:04:45;;;;;;;111.88;65.13;;;20.00;93.60;;;;;;4964491;28;88305;-75
2023/09/03 01:07:13;;;;;;;113.60;65.60;;;20.10;93.60;;;;;;4974460;28;89956;-74
2023/09/03 01:09:40;;;;;;;111.43;63.17;;;20.00;93.80;;;;;;4975695;28;89612;-73
2023/09/03 01:12:08;;;;;;;111.68;64.68;;;20.00;93.70;;;;;;4973850;28;90983;-74
2023/09/03 01:14:50;;;;;;;111.88;64.65;;;20.00;93.40;;;;;;4968814;28;89434;-74
2023/09/03 01:17:21;;;;;;;114.43;64.75;;;20.00;93.50;;;;;;4982371;28;90217;-75
2023/09/03 01:20:06;;;;;;;111.15;63.83;;;19.90;94.00;;;;;;4964136;28;90205;-74
2023/09/03 01:22:43;;;;;;;111.38;64.07;;;19.90;93.80;;;;;;4964895;28;90210;-73
2023/09/03 01:25:23;;;;;;;110.72;63.35;;;19.90;94.00;;;;;;4972452;28;89687;-74
2023/09/03 01:28:10;;;;;;;112.53;64.20;;;19.90;93.60;;;;;;4958461;28;90930;-74
2023/09/03 01:30:36;;;;;;;109.55;62.97;;;19.90;93.70;;;;;;4968883;28;90399;-74
2023/09/03 01:33:02;;;;;;;109.53;63.25;;;19.90;94.00;;;;;;4959532;28;89945;-74
2023/09/03 01:35:28;;;;;;;109.40;63.25;;;19.90;94.20;;;;;;4940879;28;89589;-74
2023/09/03 01:37:54;;;;;;;110.50;62.83;;;19.90;94.50;;;;;;4954489;28;90919;-74
2023/09/03 01:40:20;;;;;;;112.32;63.03;;;19.90;94.00;;;;;;4963693;28;91217;-74
2023/09/03 01:42:46;;;;;;;110.53;63.40;;;19.90;94.10;;;;;;4963681;28;92736;-74
2023/09/03 01:45:12;;;;;;;112.30;64.72;;;19.90;94.20;;;;;;4970298;28;92110;-74
2023/09/03 01:47:42;;;;;;;109.18;62.60;;;19.80;93.90;;;;;;4964398;28;89888;-74
2023/09/03 01:50:42;;;;;;;112.00;64.20;;;19.80;93.90;;;;;;4964661;28;89621;-74
2023/09/03 01:53:21;;;;;;;107.65;61.42;;;19.80;94.00;;;;;;4929258;28;89568;-73
2023/09/03 01:55:54;;;;;;;110.20;62.78;;;19.80;95.10;;;;;;4965894;28;90799;-74
2023/09/03 01:58:23;;;;;;;110.88;63.47;;;19.80;94.30;;;;;;4969227;28;93977;-73
2023/09/03 02:00:49;;;;;;;111.82;63.53;;;19.80;94.10;;;;;;4968999;28;90404;-75
2023/09/03 02:03:15;;;;;;;108.35;62.13;;;19.80;94.80;;;;;;4968611;28;90465;-74
2023/09/03 02:05:41;;;;;;;111.20;62.90;;;19.80;95.30;;;;;;4969052;28;91284;-74
2023/09/03 02:08:06;;;;;;;111.78;64.90;;;19.80;94.60;;;;;;4963987;28;90436;-74
2023/09/03 02:10:32;;;;;;;112.20;64.35;;;19.80;93.80;;;;;;4946506;28;89978;-75
2023/09/03 02:12:58;;;;;;;114.22;65.97;;;19.70;93.50;;;;;;4964721;28;89505;-75
2023/09/03 02:15:23;;;;;;;114.55;63.70;;;19.70;93.90;;;;;;4959760;28;91024;-74
2023/09/03 02:17:49;;;;;;;112.68;65.07;;;19.70;94.10;;;;;;4959446;28;90987;-75
2023/09/03 02:20:15;;;;;;;113.28;65.47;;;19.70;94.00;;;;;;4962708;28;88804;-74
2023/09/03 02:22:41;;;;;;;114.07;65.78;;;19.70;94.00;;;;;;4967504;28;89723;-74
2023/09/03 02:25:07;;;;;;;112.95;64.82;;;19.70;93.70;;;;;;4966069;28;90177;-74
2023/09/03 02:27:32;;;;;;;111.05;62.35;;;19.70;93.80;;;;;;4968868;28;90879;-74
2023/09/03 02:29:58;;;;;;;111.65;64.05;;;19.60;93.90;;;;;;4958374;28;90421;-74
2023/09/03 02:32:23;;;;;;;113.28;65.00;;;19.60;94.00;;;;;;4965843;28;89655;-74
2023/09/03 02:34:49;;;;;;;111.78;63.40;;;19.60;94.10;;;;;;4953950;28;91585;-73
2023/09/03 02:37:14;;;;;;;116.30;66.63;;;19.60;94.30;;;;;;4968192;28;89681;-73
2023/09/03 02:39:41;;;;;;;113.70;64.13;;;19.60;94.00;;;;;;4959649;28;90067;-75
2023/09/03 02:42:06;;;;;;;110.03;63.35;;;19.50;93.80;;;;;;4950579;28;89981;-74
2023/09/03 02:44:32;;;;;;;109.93;63.30;;;19.50;94.30;;;;;;4980490;28;88498;-74
2023/09/03 02:46:57;;;;;;;110.18;63.38;;;19.60;94.30;;;;;;4961163;28;89793;-73
2023/09/03 02:49:23;;;;;;;110.88;64.05;;;19.50;94.10;;;;;;4973663;28;91005;-74
2023/09/03 02:51:49;;;;;;;109.28;63.13;;;19.50;94.20;;;;;;4969185;28;92138;-74
2023/09/03 02:54:14;;;;;;;112.75;64.25;;;19.50;94.40;;;;;;4976411;28;89449;-74
2023/09/03 02:56:40;;;;;;;111.10;64.40;;;19.50;94.40;;;;;;4968923;28;92035;-74
2023/09/03 02:59:05;;;;;;;113.00;65.13;;;19.50;94.50;;;;;;4946109;28;90195;-74
2023/09/03 03:01:32;;;;;;;111.00;63.88;;;19.50;94.50;;;;;;4968869;28;89307;-74
2023/09/03 03:03:57;;;;;;;112.38;64.43;;;19.50;94.60;;;;;;4968206;28;89973;-74
2023/09/03 03:06:23;;;;;;;114.03;65.30;;;19.40;94.50;;;;;;4967854;28;95127;-74
2023/09/03 03:08:48;;;;;;;113.22;65.32;;;19.40;94.90;;;;;;4950639;28;91100;-74
2023/09/03 03:11:16;;;;;;;110.88;63.53;;;19.40;95.00;;;;;;4976439;28;89418;-74
2023/09/03 03:13:43;;;;;;;112.43;64.57;;;19.40;95.00;;;;;;4970891;28;89802;-74
2023/09/03 03:16:10;;;;;;;109.60;62.15;;;19.40;94.90;;;;;;4973733;28;90331;-74
2023/09/03 03:18:38;;;;;;;108.38;62.28;;;19.40;95.20;;;;;;4961832;28;94893;-74
2023/09/03 03:21:14;;;;;;;108.75;63.13;;;19.40;95.90;;;;;;4966093;28;89559;-73
2023/09/03 03:23:40;;;;;;;108.18;62.83;;;19.40;95.10;;;;;;4977568;28;89244;-75
2023/09/03 03:26:06;;;;;;;111.55;64.75;;;19.40;95.90;;;;;;4961483;28;89401;-74
2023/09/03 03:28:35;;;;;;;111.00;63.83;;;19.40;95.90;;;;;;4951167;28;89816;-74
2023/09/03 03:31:14;;;;;;;110.22;62.83;;;19.40;95.60;;;;;;4963872;28;89225;-74
2023/09/03 03:33:41;;;;;;;111.03;63.45;;;19.30;95.50;;;;;;4964557;28;89527;-74
2023/09/03 03:36:09;;;;;;;110.72;63.28;;;19.30;94.80;;;;;;4972563;28;90422;-74
2023/09/03 03:38:35;;;;;;;111.97;63.67;;;19.30;95.40;;;;;;4967585;28;92041;-74
2023/09/03 03:41:17;;;;;;;111.88;62.92;;;19.40;94.80;;;;;;4971401;28;90912;-73
2023/09/03 03:43:46;;;;;;;113.50;63.80;;;19.30;94.80;;;;;;4972977;28;92572;-74
2023/09/03 03:46:15;;;;;;;109.13;62.15;;;19.30;95.30;;;;;;4972278;28;90084;-74
2023/09/03 03:48:41;;;;;;;113.00;65.10;;;19.30;95.10;;;;;;4943293;28;90641;-75
2023/09/03 03:51:06;;;;;;;113.38;63.85;;;19.30;95.00;;;;;;4961230;28;90187;-74
2023/09/03 03:53:32;;;;;;;113.13;64.53;;;19.30;94.70;;;;;;4947405;28;91232;-75
2023/09/03 03:56:07;;;;;;;115.93;65.70;;;19.30;94.50;;;;;;4962090;28;90306;-74
2023/09/03 03:58:36;;;;;;;115.78;65.53;;;19.20;94.50;;;;;;4946647;28;89024;-74
2023/09/03 04:01:11;;;;;;;115.10;65.30;;;19.20;95.00;;;;;;4963283;28;89272;-74
2023/09/03 04:03:37;;;;;;;112.10;63.92;;;19.20;94.70;;;;;;4960306;28;91120;-74
2023/09/03 04:06:03;;;;;;;110.78;62.90;;;19.20;95.10;;;;;;4963817;28;90562;-73
2023/09/03 04:08:31;;;;;;;110.35;63.88;;;19.20;94.80;;;;;;4964846;28;90004;-74
2023/09/03 04:10:58;;;;;;;115.88;66.20;;;19.20;95.30;;;;;;4971571;28;89611;-75
2023/09/03 04:13:28;;;;;;;111.20;63.40;;;19.20;94.70;;;;;;4959808;28;89640;-74
2023/09/03 04:15:54;;;;;;;114.10;65.73;;;19.20;94.60;;;;;;4965561;28;91446;-73
2023/09/03 04:18:20;;;;;;;114.95;66.10;;;19.20;95.00;;;;;;4950972;28;91031;-73
2023/09/03 04:20:46;;;;;;;111.70;62.25;;;19.20;94.70;;;;;;4960653;28;90274;-74
2023/09/03 04:23:11;;;;;;;113.25;64.43;;;19.20;95.20;;;;;;4966615;28;89369;-73
2023/09/03 04:25:37;;;;;;;109.63;63.03;;;19.20;94.90;;;;;;4957089;28;92970;-74
2023/09/03 04:28:03;;;;;;;110.60;62.42;;;19.10;94.50;;;;;;4964375;28;90572;-73
2023/09/03 04:30:29;;;;;;;114.43;65.32;;;19.10;94.60;;;;;;4966471;28;92377;-74
2023/09/03 04:32:54;;;;;;;112.55;64.22;;;19.10;94.70;;;;;;4972566;28;90063;-74
2023/09/03 04:35:20;;;;;;;113.60;65.07;;;19.10;94.80;;;;;;4968049;28;89687;-75
2023/09/03 04:37:45;;;;;;;110.80;63.15;;;19.10;94.60;;;;;;4970386;28;93044;-74
2023/09/03 04:40:11;;;;;;;112.85;64.35;;;19.10;94.50;;;;;;4962858;28;89751;-74
2023/09/03 04:42:38;;;;;;;113.18;64.22;;;19.10;94.50;;;;;;4970177;28;90019;-75
2023/09/03 04:45:04;;;;;;;112.13;64.07;;;19.10;94.60;;;;;;4970916;28;90314;-75
2023/09/03 04:47:29;;;;;;;114.30;65.55;;;19.10;94.70;;;;;;4972327;28;88767;-74
2023/09/03 04:49:55;;;;;;;114.10;64.80;;;19.00;94.30;;;;;;4965796;28;90997;-75
2023/09/03 04:52:21;;;;;;;112.72;64.97;;;19.00;94.40;;;;;;4965960;28;89565;-74
2023/09/03 04:54:46;;;;;;;111.72;63.80;;;19.00;94.70;;;;;;4950968;28;90846;-75
2023/09/03 04:57:12;;;;;;;113.53;64.78;;;19.00;94.60;;;;;;4967538;28;89996;-74
2023/09/03 04:59:38;;;;;;;111.63;64.80;;;19.00;94.50;;;;;;4964716;28;92809;-74
2023/09/03 05:02:03;;;;;;;114.07;65.22;;;19.00;94.40;;;;;;4962148;28;91707;-74
2023/09/03 05:04:29;;;;;;;110.57;63.47;;;19.00;94.70;;;;;;4956845;28;91854;-74
2023/09/03 05:06:56;;;;;;;110.03;62.45;;;18.90;94.80;;;;;;4965237;28;90136;-74
2023/09/03 05:09:22;;;;;;;114.25;63.95;;;18.90;94.60;;;;;;4951854;28;90478;-74
2023/09/03 05:11:47;;;;;;;113.13;64.25;;;18.90;94.60;;;;;;4960738;28;90356;-74
2023/09/03 05:14:13;;;;;;;111.30;62.42;;;18.90;94.50;;;;;;4966639;28;90516;-75
2023/09/03 05:16:38;;;;;;;112.82;64.13;;;18.90;94.60;;;;;;4963311;28;90387;-73
2023/09/03 05:19:04;;;;;;;112.75;64.03;;;18.90;94.80;;;;;;4963028;28;90364;-75
2023/09/03 05:21:32;;;;;;;110.72;62.45;;;18.90;94.80;;;;;;4964711;28;89957;-74
2023/09/03 05:23:57;;;;;;;112.55;63.90;;;18.90;94.80;;;;;;4970102;28;89268;-74
2023/09/03 05:26:23;;;;;;;110.85;62.85;;;18.90;94.30;;;;;;4963270;28;89694;-75
2023/09/03 05:28:49;;;;;;;110.95;62.88;;;18.90;94.80;;;;;;4966480;28;89319;-75
2023/09/03 05:31:15;;;;;;;114.32;64.72;;;18.90;94.60;;;;;;4967083;28;91692;-75
2023/09/03 05:33:41;;;;;;;113.45;64.43;;;18.90;94.80;;;;;;4955862;28;90270;-76
2023/09/03 05:36:06;;;;;;;112.35;63.60;;;18.90;94.60;;;;;;4955814;28;93673;-75
2023/09/03 05:38:32;;;;;;;112.30;64.18;;;18.90;94.60;;;;;;4966369;28;91039;-75
2023/09/03 05:40:59;;;;;;;114.28;65.07;;;18.90;94.80;;;;;;4976712;28;89621;-74
2023/09/03 05:43:25;;;;;;;109.30;62.75;;;18.90;94.50;;;;;;4969483;28;91162;-75
2023/09/03 05:45:51;;;;;;;113.60;64.05;;;18.90;94.50;;;;;;4970711;28;89665;-75
2023/09/03 05:48:17;;;;;;;114.10;64.38;;;18.90;94.60;;;;;;4966259;28;89261;-74
2023/09/03 05:50:42;;;;;;;110.20;62.90;;;18.90;94.50;;;;;;4954193;28;90134;-73
2023/09/03 05:53:08;;;;;;;108.80;61.53;;;18.90;95.00;;;;;;4956592;28;89627;-74
2023/09/03 05:55:39;;;;;;;111.55;63.70;;;18.90;94.70;;;;;;4967183;28;92601;-75
2023/09/03 05:58:05;;;;;;;107.70;61.28;;;18.90;94.90;;;;;;4963565;28;89624;-74
2023/09/03 06:00:31;;;;;;;112.78;64.25;;;19.00;95.60;;;;;;4959454;28;89203;-74
2023/09/03 06:02:57;;;;;;;110.45;62.25;;;19.00;94.60;;;;;;4968567;28;90738;-75
2023/09/03 06:05:27;;;;;;;109.15;62.13;;;19.00;94.80;;;;;;4950533;28;91204;-72
2023/09/03 06:07:52;;;;;;;108.53;61.35;;;19.00;94.90;;;;;;4974989;28;91400;-74
2023/09/03 06:10:18;;;;;;;107.15;60.92;;;19.00;94.50;;;;;;4968144;28;89854;-74
2023/09/03 06:12:43;;;;;;;109.20;60.95;;;19.00;95.20;;;;;;4950961;28;90478;-74
2023/09/03 06:15:09;;;;;;;106.95;60.75;;;19.00;95.00;;;;;;4972466;28;89474;-73
2023/09/03 06:17:35;;;;;;;107.35;61.20;;;19.10;96.00;;;;;;4953305;28;89537;-74
2023/09/03 06:20:01;;;;;;;111.05;61.60;;;19.10;95.10;;;;;;4949187;28;89639;-74
2023/09/03 06:22:26;;;;;;;107.97;61.70;;;19.10;95.10;;;;;;4965945;28;89646;-74
2023/09/03 06:24:52;;;;;;;110.20;61.55;;;19.10;95.40;;;;;;4960294;28;88857;-74
2023/09/03 06:27:17;;;;;;;108.28;60.75;;;19.20;94.40;;;;;;4978670;28;90015;-73
2023/09/03 06:29:43;;;;;;;105.88;60.25;;;19.20;94.90;;;;;;4967406;28;89559;-73
2023/09/03 06:32:08;;;;;;;105.50;60.15;;;19.20;95.00;;;;;;4960782;28;91879;-73
2023/09/03 06:34:34;;;;;;;111.68;62.80;;;19.30;97.10;;;;;;4961068;28;90501;-74
2023/09/03 06:37:00;;;;;;;114.80;64.60;;;19.20;94.00;;;;;;4971234;28;89303;-73
2023/09/03 06:39:26;;;;;;;107.22;60.80;;;19.20;93.20;;;;;;4973297;28;89887;-73
2023/09/03 06:41:52;;;;;;;106.07;60.00;;;19.20;95.50;;;;;;4957192;28;93471;-74
2023/09/03 06:44:17;;;;;;;112.85;63.47;;;19.30;95.80;;;;;;4961646;28;90729;-73
2023/09/03 06:46:43;;;;;;;105.15;59.65;;;19.30;93.50;;;;;;4965309;28;89653;-75
2023/09/03 06:49:08;;;;;;;105.55;59.45;;;19.30;96.90;;;;;;4956852;28;88705;-74
2023/09/03 06:51:35;;;;;;;135.45;75.97;;;19.40;97.00;;;;;;4936791;28;90378;-73
2023/09/03 06:54:00;;;;;;;147.90;80.53;;;19.40;95.70;;;;;;4968804;28;90698;-74
2023/09/03 06:56:27;;;;;;;137.95;81.80;;;19.20;96.60;;;;;;4961134;28;92312;-75
2023/09/03 06:58:52;;;;;;;140.57;79.75;;;19.20;97.20;;;;;;4963744;28;89849;-74
2023/09/03 07:01:19;;;;;;;150.43;83.93;;;19.10;97.60;;;;;;4965558;28;90089;-74
2023/09/03 07:03:44;;;;;;;142.35;83.28;;;19.10;97.50;;;;;;4964313;28;91056;-74
2023/09/03 07:06:10;;;;;;;141.85;81.22;;;19.10;98.30;;;;;;4958953;28;89874;-73
2023/09/03 07:08:35;;;;;;;143.88;83.80;;;19.00;98.10;;;;;;4964341;28;91684;-76
2023/09/03 07:11:01;;;;;;;135.90;77.90;;;19.10;98.70;;;;;;4971472;22;90412;-49
2023/09/03 07:13:27;;;;;;;142.65;82.18;;;19.10;99.10;;;;;;4949881;28;89418;-47
2023/09/03 07:15:52;;;;;;;137.57;80.93;;;19.20;98.80;;;;;;4929384;28;89737;-44
2023/09/03 07:18:18;;;;;;;139.00;80.18;;;19.30;99.30;;;;;;4924850;28;91179;-46
2023/09/03 07:20:44;;;;;;;137.35;80.95;;;19.40;98.60;;;;;;4926694;28;91461;-45
2023/09/03 07:23:09;;;;;;;136.02;78.75;;;19.60;98.20;;;;;;4910722;28;90458;-44
2023/09/03 07:25:35;;;;;;;122.75;69.40;;;19.70;98.50;;;;;;4914338;28;89848;-46
2023/09/03 07:28:02;;;;;;;135.07;78.35;;;19.90;98.00;;;;;;4917634;28;92752;-47
2023/09/03 07:30:29;;;;;;;133.75;78.35;;;20.10;97.00;;;;;;4919711;28;92722;-44
2023/09/03 07:32:56;;;;;;;129.60;78.00;;;20.20;96.20;;;;;;4923717;28;91726;-44
2023/09/03 07:35:21;;;;;;;142.10;83.70;;;20.40;96.00;;;;;;4924633;28;89764;-49
2023/09/03 07:37:47;;;;;;;136.93;80.40;;;20.50;95.30;;;;;;4922929;28;89096;-50
2023/09/03 07:40:12;;;;;;;135.88;81.30;;;20.40;95.70;;;;;;4921536;28;90318;-43
2023/09/03 07:42:38;;;;;;;139.55;81.40;;;20.50;95.60;;;;;;4926394;28;90330;-45
2023/09/03 07:45:04;;;;;;;140.32;80.57;;;20.60;95.00;;;;;;4925983;28;90567;-47
2023/09/03 07:47:30;;;;;;;141.30;82.30;;;20.50;95.40;;;;;;4930780;28;90074;-45
2023/09/03 07:49:55;;;;;;;141.90;84.13;;;20.60;95.50;;;;;;4936044;28;89911;-44
2023/09/03 07:52:21;;;;;;;140.18;83.18;;;20.70;94.80;;;;;;4928134;28;90686;-48
2023/09/03 07:54:47;;;;;;;144.45;83.93;;;20.70;94.90;;;;;;4925481;28;89503;-46
2023/09/03 07:57:13;;;;;;;143.52;84.05;;;20.70;94.90;;;;;;4930016;28;90592;-43
2023/09/03 07:59:39;;;;;;;145.02;83.88;;;20.70;94.60;;;;;;4926323;28;89620;-42
2023/09/03 08:02:04;;;;;;;137.38;82.00;;;20.80;95.70;;;;;;4923792;28;89743;-43
2023/09/03 08:04:30;;;;;;;137.20;82.30;;;20.90;94.90;;;;;;4933008;28;90251;-45
2023/09/03 08:06:56;;;;;;;142.07;82.40;;;20.90;95.30;;;;;;4929562;28;89432;-44
2023/09/03 08:09:23;;;;;;;141.18;82.93;;;21.10;94.90;;;;;;4918460;28;91835;-45
2023/09/03 08:11:50;;;;;;;142.93;82.70;;;21.10;94.40;;;;;;4925967;28;94543;-47
2023/09/03 08:14:16;;;;;;;142.82;82.93;;;21.10;94.10;;;;;;4918199;28;90870;-45
2023/09/03 08:16:42;;;;;;;139.30;82.00;;;21.00;94.80;;;;;;4918529;28;89801;-47
2023/09/03 08:19:07;;;;;;;138.60;82.78;;;21.00;95.00;;;;;;4938827;28;89655;-45
2023/09/03 08:21:33;;;;;;;138.65;83.70;;;20.90;95.00;;;;;;4943131;28;90123;-42
2023/09/03 08:23:58;;;;;;;140.18;83.32;;;20.90;95.20;;;;;;4933229;28;90628;-47
2023/09/03 08:26:24;;;;;;;136.60;80.50;;;21.00;95.00;;;;;;4907794;28;88967;-47
2023/09/03 08:28:49;;;;;;;136.07;81.13;;;21.10;94.60;;;;;;4895913;28;91132;-44
2023/09/03 08:31:15;;;;;;;136.18;80.57;;;21.00;94.90;;;;;;4897864;28;92202;-43
2023/09/03 08:33:41;;;;;;;135.02;80.72;;;21.10;94.60;;;;;;4903118;28;93604;-48
2023/09/03 08:36:06;;;;;;;137.20;80.43;;;21.10;94.40;;;;;;4909347;28;89830;-46
2023/09/03 08:38:32;;;;;;;135.70;81.22;;;21.10;94.30;;;;;;4922903;28;90442;-50
2023/09/03 08:40:58;;;;;;;135.18;80.22;;;21.10;94.60;;;;;;4924686;28;89964;-47
2023/09/03 08:43:26;;;;;;;140.38;82.00;;;21.20;94.70;;;;;;4920307;28;90401;-49
2023/09/03 08:45:59;;;;;;;139.85;80.22;;;21.20;93.90;;;;;;4926271;28;89986;-47
2023/09/03 08:48:24;;;;;;;136.95;79.30;;;21.20;93.60;;;;;;4917671;28;90286;-46
2023/09/03 08:50:51;;;;;;;142.23;82.15;;;21.20;93.70;;;;;;4931662;28;92982;-47
2023/09/03 08:53:17;;;;;;;141.77;82.25;;;21.00;94.50;;;;;;4929955;28;94710;-47
2023/09/03 08:55:43;;;;;;;132.07;78.55;;;21.20;94.70;;;;;;4926585;28;91303;-44
2023/09/03 08:58:09;;;;;;;138.63;81.40;;;21.40;94.50;;;;;;4930646;28;91995;-47
2023/09/03 09:00:37;;;;;;;136.90;82.55;;;21.30;93.90;;;;;;4931308;28;90437;-48
2023/09/03 09:03:06;;;;;;;137.30;77.93;;;21.40;93.70;;;;;;4921454;28;90065;-44
2023/09/03 09:05:33;;;;;;;132.60;77.63;;;21.50;93.50;;;;;;4919737;28;89944;-47
2023/09/03 09:08:00;;;;;;;140.05;80.55;;;21.70;93.30;;;;;;4918154;28;90711;-44
2023/09/03 09:10:32;;;;;;;134.48;79.88;;;21.70;92.10;;;;;;4919336;28;91355;-47
2023/09/03 09:13:05;;;;;;;135.75;81.00;;;21.70;92.80;;;;;;4924348;28;90812;-45
2023/09/03 09:15:31;;;;;;;136.05;81.13;;;21.70;92.20;;;;;;4923281;28;90707;-46
2023/09/03 09:17:57;;;;;;;130.32;77.30;;;21.80;92.30;;;;;;4917682;28;90376;-44
2023/09/03 09:20:22;;;;;;;146.75;79.45;;;22.00;92.20;;;;;;4924031;28;93075;-44
2023/09/03 09:22:49;;;;;;;146.48;82.00;;;22.10;92.50;;;;;;4921713;28;91750;-43
2023/09/03 09:25:19;;;;;;;140.35;80.50;;;22.10;91.20;;;;;;4922306;28;89743;-45
2023/09/03 09:27:45;;;;;;;143.90;83.22;;;22.20;91.90;;;;;;4932749;28;90028;-46
2023/09/03 09:30:15;;;;;;;138.40;78.63;;;22.10;91.20;;;;;;4938561;28;89526;-45
2023/09/03 09:32:41;;;;;;;140.65;82.28;;;22.00;91.80;;;;;;4955472;28;93724;-46
2023/09/03 09:35:08;;;;;;;136.40;79.32;;;22.10;91.50;;;;;;4952975;28;90042;-46
2023/09/03 09:37:41;;;;;;;138.02;80.53;;;22.30;91.10;;;;;;4950590;28;89803;-44
2023/09/03 09:40:08;;;;;;;139.05;81.40;;;22.20;91.30;;;;;;4955466;28;89386;-47
2023/09/03 09:42:35;;;;;;;138.70;81.50;;;22.30;91.10;;;;;;4947662;28;90826;-44
2023/09/03 09:45:02;;;;;;;139.00;82.38;;;22.30;91.20;;;;;;4956417;28;89657;-46
2023/09/03 09:47:28;;;;;;;132.93;79.90;;;22.30;90.80;;;;;;4952668;28;93990;-48
2023/09/03 09:49:54;;;;;;;139.70;82.25;;;22.30;90.90;;;;;;4957018;28;91296;-46
2023/09/03 09:52:21;;;;;;;138.40;83.07;;;22.40;90.80;;;;;;4954661;28;89590;-45
2023/09/03 09:54:48;;;;;;;141.18;83.38;;;22.40;90.70;;;;;;4953336;28;91720;-44
2023/09/03 09:57:23;;;;;;;130.07;78.20;;;22.50;90.70;;;;;;4956976;28;89559;-45
2023/09/03 09:59:55;;;;;;;138.65;82.05;;;22.50;90.60;;;;;;4955111;28;89690;-45
2023/09/03 10:02:22;;;;;;;134.07;78.47;;;22.50;90.30;;;;;;4961813;28;89519;-43
2023/09/03 10:04:49;;;;;;;137.23;80.57;;;22.50;90.40;;;;;;4955943;28;88930;-47
2023/09/03 10:07:15;;;;;;;134.45;78.78;;;22.60;91.20;;;;;;4961213;28;89572;-47
2023/09/03 10:09:44;;;;;;;130.00;75.93;;;22.60;90.10;;;;;;4954590;28;91610;-45
2023/09/03 10:12:11;;;;;;;128.70;74.95;;;22.60;90.30;;;;;;4951692;28;91574;-44
2023/09/03 10:14:37;;;;;;;129.27;75.00;;;22.70;90.90;;;;;;4947385;28;90363;-48
2023/09/03 10:17:05;;;;;;;133.00;77.57;;;22.70;90.40;;;;;;4944860;28;91225;-46
2023/09/03 10:19:59;;;;;;;132.20;78.15;;;22.80;90.20;;;;;;4937904;28;93768;-46
2023/09/03 10:22:26;;;;;;;117.68;66.35;;;22.90;90.60;;;;;;4954097;28;89504;-44
2023/09/03 10:24:59;;;;;;;129.40;73.30;;;22.90;90.00;;;;;;4951030;28;89446;-48
2023/09/03 10:27:29;;;;;;;131.13;76.72;;;23.00;90.00;;;;;;4948898;28;90125;-47
2023/09/03 10:29:58;;;;;;;124.57;72.20;;;22.90;88.20;;;;;;4954716;28;89270;-51
2023/09/03 10:32:26;;;;;;;125.82;72.43;;;23.00;89.60;;;;;;4948649;28;91786;-56
2023/09/03 10:34:52;;;;;;;126.55;72.22;;;23.00;88.40;;;;;;4954449;28;89711;-50
2023/09/03 10:37:18;;;;;;;128.88;75.47;;;23.10;89.00;;;;;;4950724;28;90675;-52
2023/09/03 10:39:45;;;;;;;135.18;78.57;;;23.10;89.60;;;;;;4938695;28;93860;-49
2023/09/03 10:42:27;;;;;;;125.82;73.57;;;23.10;88.30;;;;;;4944592;28;89954;-52
2023/09/03 10:44:57;;;;;;;128.48;73.95;;;23.20;90.10;;;;;;4951958;28;89891;-49
2023/09/03 10:47:23;;;;;;;124.60;72.32;;;23.30;88.40;;;;;;4954445;28;91505;-50
2023/09/03 10:49:51;;;;;;;120.13;68.95;;;23.30;85.10;;;;;;4946109;28;91274;-51
2023/09/03 10:52:32;;;;;;;125.40;71.47;;;23.30;86.20;;;;;;4955914;28;94880;-46
2023/09/03 10:55:15;;;;;;;121.45;67.78;;;23.30;86.30;;;;;;4944925;28;89618;-49
2023/09/03 10:57:45;;;;;;;120.65;65.32;;;23.40;86.80;;;;;;4944433;28;90880;-50
2023/09/03 11:00:24;;;;;;;117.95;66.50;;;23.40;85.80;;;;;;4948554;28;91231;-47
2023/09/03 11:02:50;;;;;;;120.38;69.25;;;23.50;87.00;;;;;;4947054;28;90740;-49
2023/09/03 11:05:23;;;;;;;119.68;66.93;;;23.60;86.00;;;;;;4946271;28;91831;-47
2023/09/03 11:08:09;;;;;;;122.15;69.82;;;23.60;83.30;;;;;;4940827;28;91171;-46
2023/09/03 11:10:35;;;;;;;121.03;67.90;;;23.50;86.10;;;;;;4949147;28;94379;-45
2023/09/03 11:13:04;;;;;;;119.40;67.38;;;23.70;86.00;;;;;;4944610;28;94103;-44
2023/09/03 11:15:30;;;;;;;122.07;67.30;;;23.70;84.10;;;;;;4945734;28;90488;-45
2023/09/03 11:17:56;;;;;;;119.50;67.63;;;23.80;83.20;;;;;;4954406;28;89963;-44
2023/09/03 11:20:35;;;;;;;117.70;66.50;;;23.80;84.10;;;;;;4950124;28;89274;-47
2023/09/03 11:23:04;;;;;;;123.30;67.32;;;23.80;83.90;;;;;;4944107;28;90221;-46
2023/09/03 11:25:40;;;;;;;116.75;64.25;;;23.80;82.90;;;;;;4950413;28;89440;-44
2023/09/03 11:28:08;;;;;;;119.30;67.25;;;23.90;85.40;;;;;;4947491;28;92809;-46
2023/09/03 11:30:34;;;;;;;117.28;65.18;;;24.00;82.90;;;;;;4941704;28;91012;-45
2023/09/03 11:33:00;;;;;;;120.55;67.43;;;24.00;83.90;;;;;;4946107;28;89785;-46
2023/09/03 11:35:27;;;;;;;117.97;66.53;;;24.00;81.80;;;;;;4945003;28;90463;-45
2023/09/03 11:37:53;;;;;;;119.72;65.55;;;24.00;83.30;;;;;;4951794;28;90586;-48
2023/09/03 11:40:28;;;;;;;121.22;67.90;;;24.00;83.10;;;;;;4942330;28;91156;-43
2023/09/03 11:42:54;;;;;;;121.25;65.45;;;24.10;82.50;;;;;;4951951;28;89806;-51
2023/09/03 11:45:19;;;;;;;118.43;65.63;;;24.10;83.60;;;;;;4940957;28;88923;-47
2023/09/03 11:47:51;;;;;;;119.30;66.75;;;24.10;83.70;;;;;;4952002;28;92158;-45
2023/09/03 11:50:18;;;;;;;117.45;65.53;;;24.10;79.10;;;;;;4941376;28;89849;-46
2023/09/03 11:52:53;;;;;;;115.70;63.97;;;24.10;80.10;;;;;;4947964;28;94257;-46
2023/09/03 11:55:20;;;;;;;120.15;66.57;;;24.20;80.40;;;;;;4950194;28;90644;-45
2023/09/03 11:57:47;;;;;;;120.38;67.05;;;24.20;81.00;;;;;;4946288;28;90748;-46
2023/09/03 12:00:15;;;;;;;119.63;67.20;;;24.20;79.60;;;;;;4942458;28;90720;-46
2023/09/03 12:02:42;;;;;;;117.43;65.07;;;24.30;79.40;;;;;;4950393;28;90516;-46
2023/09/03 12:05:09;;;;;;;119.47;66.90;;;24.30;80.30;;;;;;4941610;28;89931;-47
2023/09/03 12:07:35;;;;;;;118.07;66.30;;;24.40;82.20;;;;;;4953514;28;89642;-46
2023/09/03 12:10:01;;;;;;;118.40;66.72;;;24.50;80.60;;;;;;4952087;28;89051;-44
2023/09/03 12:12:27;;;;;;;118.40;64.43;;;24.50;80.10;;;;;;4950085;28;93638;-45
2023/09/03 12:14:52;;;;;;;115.32;63.85;;;24.60;79.70;;;;;;4949706;28;90445;-44
2023/09/03 12:17:25;;;;;;;117.15;64.90;;;24.60;76.60;;;;;;4945800;28;90829;-45
2023/09/03 12:22:29;;;;;;;116.95;65.25;;;24.80;80.20;;;;;;5062313;22;113218;-50